sensor_id;sensor_type;location;lat;lon;timestamp;pressure;altitude;pressure_sealevel;temperature;humidity
39083;BME280;24834;44.444;26.098;2023-07-29T00:00:00;100287.00;;;23.90;
39083;BME280;24834;44.444;26.098;2023-07-29T00:06:02;100288.94;;;23.83;
39083;BME280;24834;44.444;26.098;2023-07-29T00:12:05;100298.69;;;23.54;
39083;BME280;24834;44.444;26.098;2023-07-29T00:18:07;100291.22;;;23.30;
39083;BME280;24834;44.444;26.098;2023-07-29T00:24:09;100296.28;;;23.35;
39083;BME280;24834;44.444;26.098;2023-07-29T00:30:11;100283.16;;;23.30;
39083;BME280;24834;44.444;26.098;2023-07-29T00:36:16;100277.78;;;23.23;
39083;BME280;24834;44.444;26.098;2023-07-29T00:42:19;100273.94;;;23.20;
39083;BME280;24834;44.444;26.098;2023-07-29T00:48:22;100257.03;;;23.20;
39083;BME280;24834;44.444;26.098;2023-07-29T00:54:24;100260.19;;;23.29;
39083;BME280;24834;44.444;26.098;2023-07-29T01:00:27;100267.84;;;23.27;
39083;BME280;24834;44.444;26.098;2023-07-29T01:13:28;100277.66;;;23.12;
39083;BME280;24834;44.444;26.098;2023-07-29T01:19:51;100263.81;;;23.07;
39083;BME280;24834;44.444;26.098;2023-07-29T01:25:57;100264.94;;;22.99;
39083;BME280;24834;44.444;26.098;2023-07-29T01:32:06;100271.78;;;22.96;
39083;BME280;24834;44.444;26.098;2023-07-29T01:38:21;100267.31;;;22.70;
39083;BME280;24834;44.444;26.098;2023-07-29T01:44:26;100270.22;;;22.55;
39083;BME280;24834;44.444;26.098;2023-07-29T01:50:28;100267.13;;;22.49;
39083;BME280;24834;44.444;26.098;2023-07-29T01:56:31;100278.16;;;22.44;
39083;BME280;24834;44.444;26.098;2023-07-29T02:02:34;100276.13;;;22.34;
39083;BME280;24834;44.444;26.098;2023-07-29T02:08:37;100283.69;;;22.29;
39083;BME280;24834;44.444;26.098;2023-07-29T02:14:42;100280.94;;;22.22;
39083;BME280;24834;44.444;26.098;2023-07-29T02:20:45;100274.44;;;22.19;
39083;BME280;24834;44.444;26.098;2023-07-29T02:26:51;100272.91;;;22.22;
39083;BME280;24834;44.444;26.098;2023-07-29T02:32:54;100275.59;;;22.22;
39083;BME280;24834;44.444;26.098;2023-07-29T02:38:56;100294.84;;;22.01;
39083;BME280;24834;44.444;26.098;2023-07-29T02:44:58;100298.50;;;21.89;
39083;BME280;24834;44.444;26.098;2023-07-29T02:51:02;100308.31;;;21.82;
39083;BME280;24834;44.444;26.098;2023-07-29T02:57:05;100301.31;;;21.74;
39083;BME280;24834;44.444;26.098;2023-07-29T03:03:08;100303.25;;;21.51;
39083;BME280;24834;44.444;26.098;2023-07-29T03:09:10;100305.72;;;21.36;
39083;BME280;24834;44.444;26.098;2023-07-29T03:15:13;100326.31;;;21.36;
39083;BME280;24834;44.444;26.098;2023-07-29T03:21:16;100327.47;;;21.35;
39083;BME280;24834;44.444;26.098;2023-07-29T03:27:19;100322.53;;;21.37;
39083;BME280;24834;44.444;26.098;2023-07-29T03:33:22;100316.59;;;21.24;
39083;BME280;24834;44.444;26.098;2023-07-29T03:39:26;100330.00;;;21.51;
39083;BME280;24834;44.444;26.098;2023-07-29T03:45:28;100321.59;;;21.75;
39083;BME280;24834;44.444;26.098;2023-07-29T03:51:31;100326.47;;;21.92;
39083;BME280;24834;44.444;26.098;2023-07-29T03:57:33;100326.53;;;21.95;
39083;BME280;24834;44.444;26.098;2023-07-29T04:03:36;100322.63;;;21.93;
39083;BME280;24834;44.444;26.098;2023-07-29T04:09:39;100312.53;;;22.09;
39083;BME280;24834;44.444;26.098;2023-07-29T04:15:41;100316.53;;;22.22;
39083;BME280;24834;44.444;26.098;2023-07-29T04:21:44;100318.97;;;22.31;
